createdAt,value
2023-07-30T00:00:24.117Z,0.00
2023-07-30T00:02:28.176Z,0.00
2023-07-30T00:03:28.197Z,0.00
2023-07-30T00:05:32.213Z,0.00
2023-07-30T00:06:32.164Z,0.00
2023-07-30T00:08:36.237Z,0.00
2023-07-30T00:09:36.164Z,0.00
2023-07-30T00:11:41.032Z,0.00
2023-07-30T00:12:40.691Z,0.00
2023-07-30T00:14:44.770Z,0.00
2023-07-30T00:15:44.732Z,0.00
2023-07-30T00:17:38.755Z,0.00
2023-07-30T00:18:37.653Z,0.00
2023-07-30T00:20:41.746Z,0.00
2023-07-30T00:21:41.675Z,0.00
2023-07-30T00:23:45.763Z,0.00
2023-07-30T00:24:45.683Z,0.00
2023-07-30T00:26:49.789Z,0.00
2023-07-30T00:27:49.704Z,0.00
2023-07-30T00:29:53.794Z,0.00
2023-07-30T00:30:53.724Z,0.00
2023-07-30T00:32:57.889Z,0.00
2023-07-30T00:33:57.747Z,0.00
2023-07-30T00:36:01.825Z,0.00
2023-07-30T00:37:01.759Z,0.00
2023-07-30T00:39:05.850Z,0.00
2023-07-30T00:40:05.774Z,0.00
2023-07-30T00:42:09.882Z,0.00
2023-07-30T00:43:09.787Z,0.00
2023-07-30T00:45:14.369Z,0.00
2023-07-30T00:46:14.374Z,0.00
2023-07-30T00:48:18.395Z,0.00
2023-07-30T00:49:18.338Z,0.00
2023-07-30T00:51:22.447Z,0.00
2023-07-30T00:52:22.366Z,0.00
2023-07-30T00:54:26.568Z,0.00
2023-07-30T00:55:26.356Z,0.00
2023-07-30T00:57:19.390Z,0.00
2023-07-30T00:58:19.323Z,0.00
2023-07-30T01:00:23.461Z,0.00
2023-07-30T01:01:23.410Z,0.00
2023-07-30T01:03:27.388Z,0.00
2023-07-30T01:04:27.437Z,0.00
2023-07-30T01:06:31.434Z,0.00
2023-07-30T01:07:31.367Z,0.00
2023-07-30T01:09:35.474Z,0.00
2023-07-30T01:10:35.377Z,0.00
2023-07-30T01:12:39.484Z,0.00
2023-07-30T01:13:39.392Z,0.00
2023-07-30T01:15:43.495Z,0.00
2023-07-30T01:16:43.468Z,0.00
2023-07-30T01:18:47.456Z,0.00
2023-07-30T01:19:47.459Z,0.00
2023-07-30T01:21:51.522Z,0.00
2023-07-30T01:22:51.443Z,0.00
2023-07-30T01:24:55.526Z,0.00
2023-07-30T01:25:55.455Z,0.00
2023-07-30T01:27:59.577Z,0.00
2023-07-30T01:28:59.478Z,0.00
2023-07-30T01:31:03.592Z,0.00
2023-07-30T01:32:03.500Z,0.00
2023-07-30T01:34:07.569Z,0.00
2023-07-30T01:35:07.508Z,0.00
2023-07-30T01:37:00.554Z,0.00
2023-07-30T01:38:00.465Z,0.00
2023-07-30T01:40:04.540Z,0.00
2023-07-30T01:41:04.471Z,0.00
2023-07-30T01:43:08.590Z,0.00
2023-07-30T01:44:08.496Z,0.00
2023-07-30T01:46:12.587Z,0.00
2023-07-30T01:47:12.497Z,0.00
2023-07-30T01:49:16.592Z,0.00
2023-07-30T01:50:16.528Z,0.00
2023-07-30T01:52:20.615Z,0.00
2023-07-30T01:53:20.540Z,0.00
2023-07-30T01:55:24.580Z,0.00
2023-07-30T01:56:24.593Z,0.00
2023-07-30T01:58:28.666Z,0.00
2023-07-30T01:59:28.573Z,0.00
2023-07-30T02:01:32.691Z,0.00
2023-07-30T02:02:32.641Z,0.00
2023-07-30T02:04:36.691Z,0.00
2023-07-30T02:05:36.599Z,0.00
2023-07-30T02:07:29.618Z,0.00
2023-07-30T02:08:29.558Z,0.00
2023-07-30T02:10:33.639Z,0.00
2023-07-30T02:11:33.592Z,0.00
2023-07-30T02:13:37.671Z,0.00
2023-07-30T02:14:37.595Z,0.00
2023-07-30T02:16:41.690Z,0.00
2023-07-30T02:17:41.637Z,0.00
2023-07-30T02:19:45.697Z,0.00
2023-07-30T02:20:45.611Z,0.00
2023-07-30T02:22:49.720Z,0.00
2023-07-30T02:23:49.638Z,0.00
2023-07-30T02:25:53.733Z,0.00
2023-07-30T02:26:53.642Z,0.00
2023-07-30T02:28:57.740Z,0.00
2023-07-30T02:29:57.661Z,0.00
2023-07-30T02:32:01.817Z,0.00
2023-07-30T02:33:01.711Z,0.00
2023-07-30T02:35:05.779Z,0.00
2023-07-30T02:36:05.687Z,0.00
2023-07-30T02:38:09.787Z,0.00
2023-07-30T02:39:09.716Z,0.00
2023-07-30T02:41:13.778Z,0.00
2023-07-30T02:42:13.765Z,0.00
2023-07-30T02:44:17.830Z,0.00
2023-07-30T02:45:17.745Z,0.00
2023-07-30T02:47:10.774Z,0.00
2023-07-30T02:48:10.725Z,0.00
2023-07-30T02:50:14.789Z,0.00
2023-07-30T02:51:14.712Z,0.00
2023-07-30T02:53:18.806Z,0.00
2023-07-30T02:54:18.733Z,0.00
2023-07-30T02:56:22.817Z,0.00
2023-07-30T02:57:22.746Z,0.00
2023-07-30T02:59:26.860Z,0.00
2023-07-30T03:00:26.768Z,0.00
2023-07-30T03:02:30.958Z,0.00
2023-07-30T03:03:30.786Z,0.00
2023-07-30T03:05:34.864Z,0.00
2023-07-30T03:06:34.788Z,0.00
2023-07-30T03:08:38.876Z,0.00
2023-07-30T03:09:38.821Z,0.00
2023-07-30T03:11:42.899Z,0.00
2023-07-30T03:12:42.821Z,0.00
2023-07-30T03:14:46.908Z,0.00
2023-07-30T03:15:46.832Z,0.00
2023-07-30T03:17:50.978Z,0.00
2023-07-30T03:18:50.875Z,0.00
2023-07-30T03:20:54.943Z,0.00
2023-07-30T03:21:54.890Z,0.00
2023-07-30T03:23:58.966Z,0.00
2023-07-30T03:24:58.886Z,0.00
2023-07-30T03:26:51.909Z,0.00
2023-07-30T03:27:51.894Z,0.00
2023-07-30T03:29:55.925Z,0.00
2023-07-30T03:30:55.883Z,0.00
2023-07-30T03:32:59.975Z,0.00
2023-07-30T03:33:59.880Z,0.00
2023-07-30T03:36:03.958Z,0.00
2023-07-30T03:37:03.890Z,0.00
2023-07-30T03:39:07.988Z,0.00
2023-07-30T03:40:07.908Z,0.00
2023-07-30T03:42:11.997Z,0.00
2023-07-30T03:43:11.906Z,0.00
2023-07-30T03:45:16.008Z,0.00
2023-07-30T03:46:16.012Z,0.00
2023-07-30T03:48:20.439Z,0.00
2023-07-30T03:49:20.392Z,0.00
2023-07-30T03:51:24.442Z,0.00
2023-07-30T03:52:24.380Z,0.00
2023-07-30T03:54:28.471Z,0.00
2023-07-30T03:55:28.390Z,0.00
2023-07-30T03:57:21.433Z,0.00
2023-07-30T03:58:21.353Z,0.00
2023-07-30T04:00:25.529Z,0.00
2023-07-30T04:01:25.363Z,0.00
2023-07-30T04:03:29.557Z,5.63
2023-07-30T04:04:29.398Z,5.63
2023-07-30T04:06:33.475Z,5.63
2023-07-30T04:07:33.398Z,5.63
2023-07-30T04:09:37.480Z,5.63
2023-07-30T04:10:37.403Z,5.63
2023-07-30T04:12:41.510Z,5.63
2023-07-30T04:13:41.428Z,5.63
2023-07-30T04:15:45.519Z,5.63
2023-07-30T04:16:45.459Z,5.63
2023-07-30T04:18:49.530Z,5.63
2023-07-30T04:19:49.453Z,5.63
2023-07-30T04:21:53.549Z,5.63
2023-07-30T04:22:53.472Z,5.63
2023-07-30T04:24:57.574Z,11.25
2023-07-30T04:25:57.503Z,11.25
2023-07-30T04:28:01.684Z,11.25
2023-07-30T04:29:01.513Z,11.25
2023-07-30T04:31:05.611Z,11.25
2023-07-30T04:32:05.522Z,11.25
2023-07-30T04:34:09.615Z,11.25
2023-07-30T04:35:09.542Z,11.25
2023-07-30T04:37:02.593Z,11.25
2023-07-30T04:38:02.518Z,11.25
2023-07-30T04:40:06.600Z,11.25
2023-07-30T04:41:06.508Z,11.25
2023-07-30T04:43:10.617Z,16.88
2023-07-30T04:44:10.530Z,16.88
2023-07-30T04:46:14.687Z,16.88
2023-07-30T04:47:14.566Z,16.88
2023-07-30T04:49:18.627Z,16.88
2023-07-30T04:50:18.564Z,16.88
2023-07-30T04:52:22.643Z,11.25
2023-07-30T04:53:22.581Z,16.88
2023-07-30T04:55:26.657Z,16.88
2023-07-30T04:56:26.588Z,16.88
2023-07-30T04:58:30.677Z,16.88
2023-07-30T04:59:30.610Z,16.88
2023-07-30T05:01:34.808Z,16.88
2023-07-30T05:02:34.641Z,16.88
2023-07-30T05:04:38.712Z,16.88
2023-07-30T05:05:38.632Z,16.88
2023-07-30T05:07:31.664Z,16.88
2023-07-30T05:08:31.594Z,16.88
2023-07-30T05:10:35.674Z,16.88
2023-07-30T05:11:35.913Z,16.88
2023-07-30T05:13:39.681Z,16.88
2023-07-30T05:14:39.610Z,16.88
2023-07-30T05:16:43.709Z,22.50
2023-07-30T05:17:43.697Z,22.50
2023-07-30T05:19:47.721Z,28.13
2023-07-30T05:20:47.642Z,33.75
2023-07-30T05:22:52.270Z,39.38
2023-07-30T05:23:52.184Z,33.75
2023-07-30T05:25:56.266Z,33.75
2023-07-30T05:26:56.198Z,33.75
2023-07-30T05:29:00.294Z,39.38
2023-07-30T05:30:00.220Z,39.38
2023-07-30T05:32:04.353Z,39.38
2023-07-30T05:33:04.241Z,39.38
2023-07-30T05:35:08.301Z,45.00
2023-07-30T05:36:08.241Z,45.00
2023-07-30T05:38:01.163Z,45.00
2023-07-30T05:39:01.140Z,45.00
2023-07-30T05:41:05.121Z,45.00
2023-07-30T05:42:05.093Z,45.00
2023-07-30T05:44:09.043Z,39.38
2023-07-30T05:45:08.992Z,39.38
2023-07-30T05:47:01.892Z,39.38
2023-07-30T05:48:01.905Z,39.38
2023-07-30T05:50:05.822Z,39.38
2023-07-30T05:51:05.786Z,45.00
2023-07-30T05:53:10.248Z,45.00
2023-07-30T05:54:10.230Z,45.00
2023-07-30T05:56:14.184Z,45.00
2023-07-30T05:57:14.153Z,45.00
2023-07-30T05:59:20.558Z,50.63
2023-07-30T06:00:18.161Z,50.63
2023-07-30T06:02:22.236Z,56.25
2023-07-30T06:03:22.211Z,56.25
2023-07-30T06:05:26.252Z,56.25
2023-07-30T06:06:26.217Z,56.25
2023-07-30T06:08:30.267Z,56.25
2023-07-30T06:09:30.191Z,56.25
2023-07-30T06:11:34.281Z,56.25
2023-07-30T06:12:34.245Z,56.25
2023-07-30T06:14:38.298Z,56.25
2023-07-30T06:15:38.258Z,56.25
2023-07-30T06:17:33.924Z,56.25
2023-07-30T06:18:31.180Z,67.50
2023-07-30T06:20:35.160Z,78.75
2023-07-30T06:21:35.136Z,84.38
2023-07-30T06:22:35.160Z,90.00
2023-07-30T06:23:35.073Z,95.63
2023-07-30T06:24:36.140Z,101.25
2023-07-30T06:25:35.022Z,101.25
2023-07-30T06:26:35.071Z,106.88
2023-07-30T06:27:34.968Z,106.88
2023-07-30T06:28:35.008Z,101.25
2023-07-30T06:29:34.931Z,95.63
2023-07-30T06:30:34.987Z,90.00
2023-07-30T06:31:34.961Z,90.00
2023-07-30T06:32:34.973Z,84.38
2023-07-30T06:33:34.848Z,84.38
2023-07-30T06:34:34.966Z,84.38
2023-07-30T06:35:34.794Z,84.38
2023-07-30T06:36:34.960Z,95.63
2023-07-30T06:37:34.744Z,95.63
2023-07-30T06:38:36.664Z,106.88
2023-07-30T06:39:34.724Z,106.88
2023-07-30T06:40:34.809Z,112.50
2023-07-30T06:41:34.675Z,112.50
2023-07-30T06:42:34.663Z,118.13
2023-07-30T06:43:34.611Z,118.13
2023-07-30T06:44:34.764Z,123.75
2023-07-30T06:45:34.585Z,123.75
2023-07-30T06:46:34.651Z,135.00
2023-07-30T06:47:36.545Z,135.00
2023-07-30T06:48:34.613Z,129.38
2023-07-30T06:49:34.498Z,129.38
2023-07-30T06:50:34.516Z,123.75
2023-07-30T06:51:34.529Z,123.75
2023-07-30T06:52:34.442Z,123.75
2023-07-30T06:53:34.403Z,118.13
2023-07-30T06:54:34.470Z,118.13
2023-07-30T06:55:34.356Z,118.13
2023-07-30T06:56:34.356Z,118.13
2023-07-30T06:57:34.329Z,118.13
2023-07-30T06:58:34.441Z,129.38
2023-07-30T06:59:34.270Z,135.00
2023-07-30T07:00:34.285Z,135.00
2023-07-30T07:01:34.317Z,140.63
2023-07-30T07:02:34.428Z,140.63
2023-07-30T07:03:34.224Z,140.63
2023-07-30T07:04:34.217Z,140.63
2023-07-30T07:05:34.138Z,140.63
2023-07-30T07:06:34.295Z,140.63
2023-07-30T07:07:34.100Z,146.25
2023-07-30T07:08:34.146Z,146.25
2023-07-30T07:09:34.076Z,157.50
2023-07-30T07:10:34.075Z,157.50
2023-07-30T07:11:34.004Z,157.50
2023-07-30T07:12:34.077Z,157.50
2023-07-30T07:13:33.969Z,151.88
2023-07-30T07:14:33.974Z,157.50
2023-07-30T07:15:33.925Z,163.13
2023-07-30T07:16:34.034Z,163.13
2023-07-30T07:17:33.937Z,157.50
2023-07-30T07:18:33.897Z,157.50
2023-07-30T07:19:33.859Z,163.13
2023-07-30T07:20:33.914Z,163.13
2023-07-30T07:21:33.828Z,163.13
2023-07-30T07:22:33.826Z,163.13
2023-07-30T07:23:33.753Z,163.13
2023-07-30T07:24:33.839Z,151.88
2023-07-30T07:25:33.715Z,151.88
2023-07-30T07:26:33.770Z,151.88
2023-07-30T07:27:33.664Z,146.25
2023-07-30T07:28:33.707Z,151.88
2023-07-30T07:29:33.623Z,146.25
2023-07-30T07:30:33.682Z,146.25
2023-07-30T07:31:35.185Z,129.38
2023-07-30T07:32:33.628Z,123.75
2023-07-30T07:33:33.564Z,129.38
2023-07-30T07:34:34.626Z,146.25
2023-07-30T07:35:33.498Z,157.50
2023-07-30T07:36:33.521Z,157.50
2023-07-30T07:37:33.448Z,157.50
2023-07-30T07:38:33.539Z,157.50
2023-07-30T07:39:33.424Z,151.88
2023-07-30T07:40:33.442Z,151.88
2023-07-30T07:41:33.374Z,151.88
2023-07-30T07:42:33.354Z,135.00
2023-07-30T07:43:33.317Z,135.00
2023-07-30T07:44:33.367Z,146.25
2023-07-30T07:45:33.281Z,146.25
2023-07-30T07:46:33.328Z,146.25
2023-07-30T07:47:33.283Z,140.63
2023-07-30T07:48:33.304Z,135.00
2023-07-30T07:49:33.228Z,118.13
2023-07-30T07:50:33.210Z,118.13
2023-07-30T07:51:33.155Z,123.75
2023-07-30T07:52:33.241Z,129.38
2023-07-30T07:53:33.117Z,129.38
2023-07-30T07:54:33.137Z,129.38
2023-07-30T07:55:33.061Z,129.38
2023-07-30T07:56:33.146Z,129.38
2023-07-30T07:57:33.021Z,123.75
2023-07-30T07:58:33.058Z,123.75
2023-07-30T07:59:32.993Z,123.75
2023-07-30T08:00:32.971Z,112.50
2023-07-30T08:01:33.007Z,118.13
2023-07-30T08:02:33.058Z,123.75
2023-07-30T08:03:32.961Z,129.38
2023-07-30T08:04:33.046Z,129.38
2023-07-30T08:05:32.856Z,135.00
2023-07-30T08:06:32.930Z,135.00
2023-07-30T08:07:32.804Z,135.00
2023-07-30T08:08:32.849Z,140.63
2023-07-30T08:09:32.782Z,151.88
2023-07-30T08:10:32.842Z,151.88
2023-07-30T08:11:32.853Z,151.88
2023-07-30T08:12:32.764Z,151.88
2023-07-30T08:13:32.774Z,157.50
2023-07-30T08:14:32.810Z,157.50
2023-07-30T08:15:32.648Z,163.13
2023-07-30T08:16:32.732Z,163.13
2023-07-30T08:17:32.626Z,163.13
2023-07-30T08:18:32.602Z,163.13
2023-07-30T08:19:32.562Z,163.13
2023-07-30T08:20:32.601Z,157.50
2023-07-30T08:21:32.517Z,151.88
2023-07-30T08:22:32.517Z,157.50
2023-07-30T08:23:32.484Z,157.50
2023-07-30T08:24:32.536Z,151.88
2023-07-30T08:25:32.433Z,129.38
2023-07-30T08:26:32.445Z,129.38
2023-07-30T08:27:32.396Z,140.63
2023-07-30T08:28:32.518Z,140.63
2023-07-30T08:29:32.349Z,135.00
2023-07-30T08:30:32.390Z,157.50
2023-07-30T08:31:32.349Z,163.13
2023-07-30T08:32:32.429Z,168.75
2023-07-30T08:33:32.268Z,163.13
2023-07-30T08:34:32.298Z,163.13
2023-07-30T08:35:32.231Z,168.75
2023-07-30T08:36:32.230Z,163.13
2023-07-30T08:37:32.175Z,168.75
2023-07-30T08:38:32.224Z,168.75
2023-07-30T08:39:32.143Z,168.75
2023-07-30T08:40:32.134Z,168.75
2023-07-30T08:41:32.091Z,174.38
2023-07-30T08:42:32.145Z,174.38
2023-07-30T08:43:32.056Z,180.00
2023-07-30T08:44:32.058Z,185.63
2023-07-30T08:45:32.008Z,191.25
2023-07-30T08:46:32.095Z,191.25
2023-07-30T08:47:32.108Z,196.88
2023-07-30T08:48:31.993Z,208.13
2023-07-30T08:49:31.930Z,225.00
2023-07-30T08:50:31.999Z,230.63
2023-07-30T08:51:31.923Z,247.50
2023-07-30T08:52:31.935Z,253.13
2023-07-30T08:53:31.861Z,264.38
2023-07-30T08:54:31.932Z,270.00
2023-07-30T08:55:31.854Z,270.00
2023-07-30T08:56:31.852Z,281.25
2023-07-30T08:57:31.765Z,270.00
2023-07-30T08:58:31.751Z,270.00
2023-07-30T08:59:31.714Z,270.00
2023-07-30T09:00:31.772Z,281.25
2023-07-30T09:01:31.728Z,281.25
2023-07-30T09:02:31.705Z,331.88
2023-07-30T09:03:31.633Z,331.88
2023-07-30T09:04:31.690Z,303.75
2023-07-30T09:05:31.605Z,303.75
2023-07-30T09:06:31.606Z,315.00
2023-07-30T09:07:31.544Z,303.75
2023-07-30T09:08:31.646Z,298.13
2023-07-30T09:09:31.518Z,360.00
2023-07-30T09:10:31.533Z,393.75
2023-07-30T09:11:31.479Z,393.75
2023-07-30T09:12:31.552Z,371.25
2023-07-30T09:13:31.425Z,382.50
2023-07-30T09:14:31.454Z,393.75
2023-07-30T09:15:31.388Z,405.00
2023-07-30T09:16:31.423Z,405.00
2023-07-30T09:17:31.350Z,399.38
2023-07-30T09:18:31.430Z,393.75
2023-07-30T09:19:31.319Z,376.88
2023-07-30T09:20:31.313Z,410.63
2023-07-30T09:21:31.274Z,382.50
2023-07-30T09:22:31.314Z,354.38
2023-07-30T09:23:31.233Z,371.25
2023-07-30T09:24:31.242Z,360.00
2023-07-30T09:25:31.186Z,343.13
2023-07-30T09:26:31.237Z,354.38
2023-07-30T09:27:31.139Z,343.13
2023-07-30T09:28:31.160Z,253.13
2023-07-30T09:29:31.102Z,219.38
2023-07-30T09:30:31.162Z,219.38
2023-07-30T09:31:31.102Z,258.75
2023-07-30T09:32:31.151Z,320.63
2023-07-30T09:33:31.028Z,331.88
2023-07-30T09:34:31.105Z,354.38
2023-07-30T09:35:30.991Z,365.63
2023-07-30T09:36:31.018Z,376.88
2023-07-30T09:37:30.939Z,360.00
2023-07-30T09:38:31.032Z,405.00
2023-07-30T09:39:30.901Z,382.50
2023-07-30T09:40:30.930Z,348.75
2023-07-30T09:41:30.883Z,337.50
2023-07-30T09:42:30.937Z,331.88
2023-07-30T09:43:30.811Z,337.50
2023-07-30T09:44:30.853Z,405.00
2023-07-30T09:45:30.792Z,427.50
2023-07-30T09:46:30.771Z,416.25
2023-07-30T09:47:30.762Z,444.38
2023-07-30T09:48:30.784Z,444.38
2023-07-30T09:49:30.734Z,450.00
2023-07-30T09:50:30.699Z,410.63
2023-07-30T09:51:30.678Z,382.50
2023-07-30T09:52:30.810Z,371.25
2023-07-30T09:53:30.668Z,320.63
2023-07-30T09:54:30.765Z,270.00
2023-07-30T09:55:30.591Z,225.00
2023-07-30T09:56:30.749Z,196.88
2023-07-30T09:57:30.560Z,213.75
2023-07-30T09:58:30.650Z,258.75
2023-07-30T09:59:30.525Z,286.88
2023-07-30T10:00:30.675Z,275.63
2023-07-30T10:01:30.556Z,270.00
2023-07-30T10:02:30.588Z,320.63
2023-07-30T10:03:30.436Z,393.75
2023-07-30T10:04:30.638Z,444.38
2023-07-30T10:05:30.386Z,500.63
2023-07-30T10:06:30.501Z,500.63
2023-07-30T10:07:30.354Z,534.38
2023-07-30T10:08:30.417Z,495.00
2023-07-30T10:09:30.331Z,472.50
2023-07-30T10:10:30.457Z,455.63
2023-07-30T10:11:30.272Z,506.25
2023-07-30T10:12:30.340Z,495.00
2023-07-30T10:13:30.238Z,433.13
2023-07-30T10:14:30.360Z,410.63
2023-07-30T10:15:30.204Z,427.50
2023-07-30T10:16:30.287Z,472.50
2023-07-30T10:17:30.203Z,410.63
2023-07-30T10:18:30.294Z,455.63
2023-07-30T10:19:30.136Z,331.88
2023-07-30T10:20:30.205Z,281.25
2023-07-30T10:21:30.142Z,253.13
2023-07-30T10:22:30.238Z,241.88
2023-07-30T10:23:30.045Z,258.75
2023-07-30T10:24:30.229Z,264.38
2023-07-30T10:25:30.017Z,225.00
2023-07-30T10:26:30.159Z,191.25
2023-07-30T10:27:29.971Z,168.75
2023-07-30T10:28:30.067Z,151.88
2023-07-30T10:29:29.944Z,135.00
2023-07-30T10:30:30.057Z,123.75
2023-07-30T10:31:29.949Z,118.13
2023-07-30T10:32:29.986Z,112.50
2023-07-30T10:33:29.867Z,112.50
2023-07-30T10:34:29.984Z,129.38
2023-07-30T10:35:29.831Z,168.75
2023-07-30T10:36:29.903Z,236.25
2023-07-30T10:37:29.792Z,303.75
2023-07-30T10:38:29.908Z,360.00
2023-07-30T10:39:29.774Z,382.50
2023-07-30T10:40:29.823Z,427.50
2023-07-30T10:41:29.723Z,461.25
2023-07-30T10:42:29.841Z,472.50
2023-07-30T10:43:29.690Z,450.00
2023-07-30T10:44:29.747Z,450.00
2023-07-30T10:45:29.644Z,444.38
2023-07-30T10:46:29.838Z,444.38
2023-07-30T10:47:36.813Z,433.13
2023-07-30T10:48:29.674Z,405.00
2023-07-30T10:49:29.575Z,371.25
2023-07-30T10:50:29.688Z,343.13
2023-07-30T10:51:30.947Z,343.13
2023-07-30T10:52:29.602Z,354.38
2023-07-30T10:53:29.499Z,405.00
2023-07-30T10:54:29.614Z,421.88
2023-07-30T10:55:29.457Z,438.75
2023-07-30T10:56:29.542Z,534.38
2023-07-30T10:57:30.698Z,506.25
2023-07-30T10:58:29.542Z,466.88
2023-07-30T10:59:29.386Z,489.38
2023-07-30T11:00:29.457Z,427.50
2023-07-30T11:01:29.391Z,528.75
2023-07-30T11:02:29.519Z,551.25
2023-07-30T11:03:29.395Z,573.75
2023-07-30T11:04:29.389Z,579.38
2023-07-30T11:05:29.261Z,506.25
2023-07-30T11:06:29.326Z,472.50
2023-07-30T11:07:29.233Z,427.50
2023-07-30T11:08:29.237Z,393.75
2023-07-30T11:09:29.198Z,331.88
2023-07-30T11:10:29.250Z,236.25
2023-07-30T11:11:29.164Z,236.25
2023-07-30T11:12:29.191Z,236.25
2023-07-30T11:13:29.139Z,236.25
2023-07-30T11:14:29.266Z,191.25
2023-07-30T11:15:29.084Z,168.75
2023-07-30T11:16:29.160Z,163.13
2023-07-30T11:17:29.074Z,185.63
2023-07-30T11:18:29.104Z,298.13
2023-07-30T11:19:29.129Z,247.50
2023-07-30T11:20:29.019Z,286.88
2023-07-30T11:21:28.969Z,365.63
2023-07-30T11:22:29.034Z,455.63
2023-07-30T11:23:28.949Z,511.88
2023-07-30T11:24:28.948Z,365.63
2023-07-30T11:25:28.902Z,315.00
2023-07-30T11:26:28.959Z,292.50
2023-07-30T11:27:28.871Z,281.25
2023-07-30T11:28:28.905Z,326.25
2023-07-30T11:29:28.850Z,348.75
2023-07-30T11:30:28.886Z,298.13
2023-07-30T11:31:28.836Z,270.00
2023-07-30T11:32:28.857Z,258.75
2023-07-30T11:33:28.749Z,258.75
2023-07-30T11:34:28.914Z,270.00
2023-07-30T11:35:28.711Z,292.50
2023-07-30T11:36:28.742Z,354.38
2023-07-30T11:37:28.695Z,421.88
2023-07-30T11:38:28.752Z,354.38
2023-07-30T11:39:28.665Z,315.00
2023-07-30T11:40:28.655Z,326.25
2023-07-30T11:41:28.602Z,461.25
2023-07-30T11:42:28.710Z,523.13
2023-07-30T11:43:28.569Z,495.00
2023-07-30T11:44:28.581Z,540.00
2023-07-30T11:45:28.553Z,472.50
2023-07-30T11:46:28.634Z,433.13
2023-07-30T11:47:28.513Z,399.38
2023-07-30T11:48:28.516Z,399.38
2023-07-30T11:49:28.475Z,360.00
2023-07-30T11:50:28.515Z,320.63
2023-07-30T11:51:28.424Z,303.75
2023-07-30T11:52:28.437Z,281.25
2023-07-30T11:53:28.384Z,230.63
2023-07-30T11:54:28.450Z,219.38
2023-07-30T11:55:28.348Z,219.38
2023-07-30T11:56:28.415Z,219.38
2023-07-30T11:57:28.333Z,236.25
2023-07-30T11:58:28.385Z,253.13
2023-07-30T11:59:28.287Z,286.88
2023-07-30T12:00:28.289Z,303.75
2023-07-30T12:01:28.306Z,315.00
2023-07-30T12:02:28.342Z,270.00
2023-07-30T12:03:28.383Z,264.38
2023-07-30T12:04:28.212Z,264.38
2023-07-30T12:05:28.166Z,270.00
2023-07-30T12:06:28.266Z,270.00
2023-07-30T12:07:28.126Z,241.88
2023-07-30T12:08:28.139Z,219.38
2023-07-30T12:09:28.125Z,202.50
2023-07-30T12:10:28.166Z,196.88
2023-07-30T12:11:28.069Z,196.88
2023-07-30T12:12:28.100Z,213.75
2023-07-30T12:13:28.016Z,225.00
2023-07-30T12:14:28.091Z,247.50
2023-07-30T12:15:27.995Z,275.63
2023-07-30T12:16:28.063Z,286.88
2023-07-30T12:17:27.965Z,286.88
2023-07-30T12:18:28.020Z,303.75
2023-07-30T12:19:27.923Z,309.38
2023-07-30T12:20:27.930Z,360.00
2023-07-30T12:21:27.879Z,326.25
2023-07-30T12:22:27.942Z,416.25
2023-07-30T12:23:27.830Z,410.63
2023-07-30T12:24:27.913Z,472.50
2023-07-30T12:25:27.806Z,483.75
2023-07-30T12:26:27.830Z,483.75
2023-07-30T12:27:27.769Z,461.25
2023-07-30T12:28:27.867Z,523.13
2023-07-30T12:29:27.728Z,528.75
2023-07-30T12:30:27.765Z,511.88
2023-07-30T12:31:27.805Z,427.50
2023-07-30T12:32:27.805Z,455.63
2023-07-30T12:33:27.659Z,438.75
2023-07-30T12:34:27.672Z,433.13
2023-07-30T12:35:27.629Z,371.25
2023-07-30T12:36:27.738Z,388.13
2023-07-30T12:37:27.592Z,399.38
2023-07-30T12:38:27.614Z,511.88
2023-07-30T12:39:27.550Z,517.50
2023-07-30T12:40:27.639Z,489.38
2023-07-30T12:41:27.510Z,511.88
2023-07-30T12:42:27.535Z,523.13
2023-07-30T12:43:27.472Z,500.63
2023-07-30T12:44:27.544Z,461.25
2023-07-30T12:45:27.476Z,416.25
2023-07-30T12:46:27.454Z,388.13
2023-07-30T12:47:27.441Z,376.88
2023-07-30T12:48:27.476Z,365.63
2023-07-30T12:49:27.375Z,348.75
2023-07-30T12:50:27.389Z,354.38
2023-07-30T12:51:27.331Z,371.25
2023-07-30T12:52:27.399Z,376.88
2023-07-30T12:53:27.309Z,382.50
2023-07-30T12:54:27.311Z,365.63
2023-07-30T12:55:27.259Z,354.38
2023-07-30T12:56:27.346Z,343.13
2023-07-30T12:57:27.226Z,343.13
2023-07-30T12:58:27.233Z,348.75
2023-07-30T12:59:27.207Z,354.38
2023-07-30T13:00:27.251Z,360.00
2023-07-30T13:01:27.210Z,365.63
2023-07-30T13:02:27.236Z,365.63
2023-07-30T13:03:27.162Z,348.75
2023-07-30T13:04:27.197Z,343.13
2023-07-30T13:05:27.110Z,331.88
2023-07-30T13:06:27.103Z,326.25
2023-07-30T13:07:27.044Z,331.88
2023-07-30T13:08:27.099Z,337.50
2023-07-30T13:09:27.028Z,348.75
2023-07-30T13:10:27.031Z,354.38
2023-07-30T13:11:26.975Z,376.88
2023-07-30T13:12:27.027Z,393.75
2023-07-30T13:13:26.941Z,382.50
2023-07-30T13:14:26.951Z,376.88
2023-07-30T13:15:26.902Z,399.38
2023-07-30T13:16:26.992Z,410.63
2023-07-30T13:17:26.894Z,388.13
2023-07-30T13:18:26.884Z,270.00
2023-07-30T13:19:26.840Z,253.13
2023-07-30T13:20:26.889Z,241.88
2023-07-30T13:21:26.796Z,241.88
2023-07-30T13:22:26.807Z,275.63
2023-07-30T13:23:26.839Z,438.75
2023-07-30T13:24:26.809Z,371.25
2023-07-30T13:25:26.726Z,444.38
2023-07-30T13:26:26.805Z,298.13
2023-07-30T13:27:26.746Z,286.88
2023-07-30T13:28:26.859Z,281.25
2023-07-30T13:29:26.727Z,286.88
2023-07-30T13:30:26.644Z,286.88
2023-07-30T13:31:26.647Z,292.50
2023-07-30T13:32:26.699Z,309.38
2023-07-30T13:33:26.590Z,309.38
2023-07-30T13:34:26.707Z,427.50
2023-07-30T13:35:26.562Z,354.38
2023-07-30T13:36:26.619Z,365.63
2023-07-30T13:37:26.521Z,472.50
2023-07-30T13:38:26.614Z,427.50
2023-07-30T13:39:26.497Z,455.63
2023-07-30T13:40:26.529Z,455.63
2023-07-30T13:41:26.448Z,466.88
2023-07-30T13:42:26.550Z,455.63
2023-07-30T13:43:26.431Z,450.00
2023-07-30T13:44:26.442Z,450.00
2023-07-30T13:45:26.377Z,444.38
2023-07-30T13:46:26.489Z,416.25
2023-07-30T13:47:26.405Z,405.00
2023-07-30T13:48:26.445Z,348.75
2023-07-30T13:49:26.315Z,337.50
2023-07-30T13:50:26.416Z,303.75
2023-07-30T13:51:26.282Z,286.88
2023-07-30T13:52:26.296Z,326.25
2023-07-30T13:53:26.239Z,376.88
2023-07-30T13:54:26.313Z,298.13
2023-07-30T13:55:26.206Z,360.00
2023-07-30T13:56:26.235Z,371.25
2023-07-30T13:57:26.209Z,371.25
2023-07-30T13:58:26.256Z,382.50
2023-07-30T13:59:26.145Z,388.13
2023-07-30T14:00:26.174Z,382.50
2023-07-30T14:01:26.104Z,371.25
2023-07-30T14:02:26.247Z,388.13
2023-07-30T14:03:26.103Z,393.75
2023-07-30T14:04:26.083Z,382.50
2023-07-30T14:05:26.043Z,331.88
2023-07-30T14:06:26.087Z,348.75
2023-07-30T14:07:26.005Z,298.13
2023-07-30T14:08:26.001Z,281.25
2023-07-30T14:09:25.988Z,275.63
2023-07-30T14:10:26.026Z,298.13
2023-07-30T14:11:25.955Z,275.63
2023-07-30T14:12:26.038Z,270.00
2023-07-30T14:13:28.432Z,275.63
2023-07-30T14:14:25.939Z,275.63
2023-07-30T14:15:25.866Z,275.63
2023-07-30T14:16:26.014Z,253.13
2023-07-30T14:17:25.846Z,258.75
2023-07-30T14:18:25.877Z,253.13
2023-07-30T14:19:25.809Z,236.25
2023-07-30T14:20:25.887Z,208.13
2023-07-30T14:21:25.777Z,185.63
2023-07-30T14:22:25.807Z,163.13
2023-07-30T14:23:25.724Z,174.38
2023-07-30T14:24:25.813Z,208.13
2023-07-30T14:25:25.698Z,320.63
2023-07-30T14:26:25.736Z,354.38
2023-07-30T14:27:25.664Z,303.75
2023-07-30T14:28:25.874Z,326.25
2023-07-30T14:29:25.641Z,348.75
2023-07-30T14:30:25.658Z,286.88
2023-07-30T14:31:25.594Z,354.38
2023-07-30T14:32:25.687Z,354.38
2023-07-30T14:33:25.661Z,337.50
2023-07-30T14:34:25.578Z,270.00
2023-07-30T14:35:25.519Z,371.25
2023-07-30T14:36:25.605Z,360.00
2023-07-30T14:37:25.488Z,337.50
2023-07-30T14:38:25.507Z,348.75
2023-07-30T14:39:25.463Z,331.88
2023-07-30T14:40:25.528Z,348.75
2023-07-30T14:41:25.429Z,371.25
2023-07-30T14:42:25.427Z,371.25
2023-07-30T14:43:25.394Z,354.38
2023-07-30T14:44:25.438Z,286.88
2023-07-30T14:45:25.355Z,236.25
2023-07-30T14:46:25.360Z,337.50
2023-07-30T14:47:25.344Z,348.75
2023-07-30T14:48:25.369Z,230.63
2023-07-30T14:49:25.288Z,270.00
2023-07-30T14:50:25.282Z,298.13
2023-07-30T14:51:25.259Z,225.00
2023-07-30T14:52:25.316Z,196.88
2023-07-30T14:53:25.229Z,191.25